KBLM/BLM METAR and TAF weather

Enter ICAO airport designator
Station Type Date Time Source
KBLM METAR 2022/01/25 04:56 UTC NOAA

KBLM 250456Z AUTO 18004KT 10SM OVC060 02/M02 A2986 RMK AO2 SLP113 T00221017 400221050 FZRANO


Station Type Date Time Source
KBLM Decoded METAR 2022/01/25 04:56 UTC NOAA

Belmar-Farmingdale, NJ, United States (KBLM) 40-11N 074-08W
Jan 24, 2022 - 11:56 PM EST / 2022.01.25 0456 UTC
Wind: from the S (180 degrees) at 5 MPH (4 KT):0
Visibility: 10 mile(s):0
Sky conditions: overcast
Temperature: 36.0 F (2.2 C)
Dew Point: 28.9 F (-1.7 C)
Relative Humidity: 75%
Pressure (altimeter): 29.86 in. Hg (1011 hPa)
ob: KBLM 250456Z AUTO 18004KT 10SM OVC060 02/M02 A2986 RMK AO2 SLP113 T00221017 400221050 FZRANO
cycle: 5

Station Type Date Time Source
KBLM TAF UTC NOAA

Error!

Example: see airport list